Información del aeropuerto GCLP

Información de pista
Pista 03L Longitud 10171 ft Anchura 148 ft
Elevación 78 ft Umbral 0 ft Rumbo 22
Pista 21R Longitud 10171 ft Anchura 148 ft
Elevación 33 ft Umbral 0 ft Rumbo 202
Pista 03R Longitud 10171 ft Anchura 148 ft
Elevación 69 ft Umbral 0 ft Rumbo 22
Pista 21L Longitud 10171 ft Anchura 148 ft
Elevación 27 ft Umbral 0 ft Rumbo 202
Frecuencias del aeropuerto
Tipo APP Nombre APP Frecuencia 120.9 MHZ
Tipo ATIS Nombre ATIS Frecuencia 118.6 MHZ
Tipo GND Nombre GND Frecuencia 121.7 MHZ
Tipo TWR Nombre TWR Frecuencia 118.3 MHZ
Radioayudas del aeropuerto
Tipo VOR-DME Nombre Gran Canaria Frecuencia 112900 KHZ
Tipo VOR-DME Nombre Gran Canaria Frecuencia 115000 KHZ
Tipo TACAN Nombre Gran Canaria Frecuencia 115600 KHZ
Tipo NDB Nombre Gran Canaria Frecuencia 365 KHZ
Información meteorológica del aeropuerto y NOTAM
ADDS - METARS form results

(2134 UTC 19 May 2022)
Data provider http://aviationweather.gov/metar/data/
 
METAR text: GCLP 192130Z 36017G28KT 9999 FEW030 22/16 Q1015 NOSIG
Conditions at: GCLP (LAS PALMAS/GANDO, ES) observed 2130 UTC 19 May 2022
Temperature: 22.0°C (72°F)
Dewpoint: 16.0°C (61°F) [RH = 69%]
Pressure (altimeter): 29.97 inches Hg (1015.0 mb)
Winds: from the N (360 degrees) at 20 MPH (17 knots; 8.7 m/s)
gusting to 32 MPH (28 knots; 14.4 m/s)
Visibility: 6 or more miles (10+ km)
Ceiling: at least 12,000 feet AGL
Clouds: few clouds at 3000 feet AGL
Weather: no significant weather observed at this time

METAR text: GCLP 192100Z 34018KT 9999 SCT025 22/15 Q1015 NOSIG
Conditions at: GCLP (LAS PALMAS/GANDO, ES) observed 2100 UTC 19 May 2022
Temperature: 22.0°C (72°F)
Dewpoint: 15.0°C (59°F) [RH = 65%]
Pressure (altimeter): 29.97 inches Hg (1015.0 mb)
Winds: from the NNW (340 degrees) at 21 MPH (18 knots; 9.3 m/s)
Visibility: 6 or more miles (10+ km)
Ceiling: at least 12,000 feet AGL
Clouds: scattered clouds at 2500 feet AGL
Weather: no significant weather observed at this time

Forecast for: GCLP (LAS PALMAS/GANDO, ES)
Text: TAF GCLP 192000Z 1921/2021 36021KT 9999 FEW025 TX26/2014Z TN19/2006Z
Forecast period: 2100 UTC 19 May 2022 to 2100 UTC 20 May 2022
Forecast type: FROM: standard forecast or significant change
Winds: from the N (360 degrees) at 24 MPH (21 knots; 10.8 m/s)
Visibility: 6 or more miles (10+ km)
Ceiling: at least 12,000 feet AGL
Clouds: few clouds at 2500 feet AGL
Weather: no significant weather forecast for this period
Text: PROB30
Forecast period: 2100 UTC 19 May 2022 to 0800 UTC 20 May 2022
Forecast type: TEMPORARY: The following changes expected for less than half the time period
Winds: from the N (360 degrees) at 13 MPH (11 knots; 5.7 m/s)
Visibility: missing
Ceiling: unknown
Clouds: missing
Weather: no significant weather forecast for this period